sensor_id;sensor_type;location;lat;lon;timestamp;pressure;altitude;pressure_sealevel;temperature;humidity
44734;BME280;30462;52.446;-1.930;2023-07-29T00:00:18;99059.66016;;;;
44734;BME280;30462;52.446;-1.930;2023-07-29T00:01:17;99058.0625;;;;
44734;BME280;30462;52.446;-1.930;2023-07-29T00:02:18;99061.48828;;;;
44734;BME280;30462;52.446;-1.930;2023-07-29T00:03:18;99064.07422;;;;
44734;BME280;30462;52.446;-1.930;2023-07-29T00:04:18;99056.89453;;;;
44734;BME280;30462;52.446;-1.930;2023-07-29T00:05:17;99062.10547;;;;
44734;BME280;30462;52.446;-1.930;2023-07-29T00:06:18;99061.19922;;;;
44734;BME280;30462;52.446;-1.930;2023-07-29T00:07:18;99057.58594;;;;
44734;BME280;30462;52.446;-1.930;2023-07-29T00:08:18;99062.37891;;;;
44734;BME280;30462;52.446;-1.930;2023-07-29T00:09:18;99058.98828;;;;
44734;BME280;30462;52.446;-1.930;2023-07-29T00:10:18;99063.01563;;;;
44734;BME280;30462;52.446;-1.930;2023-07-29T00:11:18;99063.33203;;;;
44734;BME280;30462;52.446;-1.930;2023-07-29T00:12:18;99059.05859;;;;
44734;BME280;30462;52.446;-1.930;2023-07-29T00:13:18;99056.1875;;;;
44734;BME280;30462;52.446;-1.930;2023-07-29T00:14:18;99060.28125;;;;
44734;BME280;30462;52.446;-1.930;2023-07-29T00:15:18;99051.33594;;;;
44734;BME280;30462;52.446;-1.930;2023-07-29T00:16:19;99058.00781;;;;
44734;BME280;30462;52.446;-1.930;2023-07-29T00:17:18;99058.36719;;;;
44734;BME280;30462;52.446;-1.930;2023-07-29T00:18:18;99059.46094;;;;
44734;BME280;30462;52.446;-1.930;2023-07-29T00:19:17;99061.29688;;;;
44734;BME280;30462;52.446;-1.930;2023-07-29T00:20:18;99064.38281;;;;
44734;BME280;30462;52.446;-1.930;2023-07-29T00:21:18;99061.9375;;;;
44734;BME280;30462;52.446;-1.930;2023-07-29T00:22:18;99062.48438;;;;
44734;BME280;30462;52.446;-1.930;2023-07-29T00:23:18;99061.62891;;;;
44734;BME280;30462;52.446;-1.930;2023-07-29T00:24:17;99064.66797;;;;
44734;BME280;30462;52.446;-1.930;2023-07-29T00:25:18;99063.71094;;;;
44734;BME280;30462;52.446;-1.930;2023-07-29T00:26:18;99060.87891;;;;
44734;BME280;30462;52.446;-1.930;2023-07-29T00:27:18;99057.49219;;;;
44734;BME280;30462;52.446;-1.930;2023-07-29T00:28:18;99065.40234;;;;
44734;BME280;30462;52.446;-1.930;2023-07-29T00:29:17;99061.21484;;;;
44734;BME280;30462;52.446;-1.930;2023-07-29T00:30:18;99062.40625;;;;
44734;BME280;30462;52.446;-1.930;2023-07-29T00:31:18;99057.76953;;;;
44734;BME280;30462;52.446;-1.930;2023-07-29T00:32:18;99056.13672;;;;
44734;BME280;30462;52.446;-1.930;2023-07-29T00:33:18;99059.00781;;;;
44734;BME280;30462;52.446;-1.930;2023-07-29T00:34:18;99058.17969;;;;
44734;BME280;30462;52.446;-1.930;2023-07-29T00:35:18;99057.39844;;;;
44734;BME280;30462;52.446;-1.930;2023-07-29T00:36:18;99057.45703;;;;
44734;BME280;30462;52.446;-1.930;2023-07-29T00:37:17;99054.54297;;;;
44734;BME280;30462;52.446;-1.930;2023-07-29T00:38:18;99050.5625;;;;
44734;BME280;30462;52.446;-1.930;2023-07-29T00:39:18;99050.38281;;;;
44734;BME280;30462;52.446;-1.930;2023-07-29T00:40:19;99053.83203;;;;
44734;BME280;30462;52.446;-1.930;2023-07-29T00:41:18;99053.65625;;;;
44734;BME280;30462;52.446;-1.930;2023-07-29T00:42:18;99058.65625;;;;
44734;BME280;30462;52.446;-1.930;2023-07-29T00:43:18;99057.65625;;;;
44734;BME280;30462;52.446;-1.930;2023-07-29T00:44:18;99056.99219;;;;
44734;BME280;30462;52.446;-1.930;2023-07-29T00:45:18;99056.42188;;;;
44734;BME280;30462;52.446;-1.930;2023-07-29T00:46:18;99064.57031;;;;
44734;BME280;30462;52.446;-1.930;2023-07-29T00:47:18;99061.66406;;;;
44734;BME280;30462;52.446;-1.930;2023-07-29T00:48:18;99059.90234;;;;
44734;BME280;30462;52.446;-1.930;2023-07-29T00:49:18;99059.60547;;;;
44734;BME280;30462;52.446;-1.930;2023-07-29T00:50:18;99059.35156;;;;
44734;BME280;30462;52.446;-1.930;2023-07-29T00:51:18;99059.99609;;;;
44734;BME280;30462;52.446;-1.930;2023-07-29T00:52:17;99053.66797;;;;
44734;BME280;30462;52.446;-1.930;2023-07-29T00:53:18;99052.96875;;;;
44734;BME280;30462;52.446;-1.930;2023-07-29T00:54:18;99051.88281;;;;
44734;BME280;30462;52.446;-1.930;2023-07-29T00:55:18;99051.80859;;;;
44734;BME280;30462;52.446;-1.930;2023-07-29T00:56:18;99045.40625;;;;
44734;BME280;30462;52.446;-1.930;2023-07-29T00:57:18;99042.69922;;;;
44734;BME280;30462;52.446;-1.930;2023-07-29T00:58:17;99043.92969;;;;
44734;BME280;30462;52.446;-1.930;2023-07-29T00:59:17;99048.27344;;;;
44734;BME280;30462;52.446;-1.930;2023-07-29T01:00:18;99047.49609;;;;
44734;BME280;30462;52.446;-1.930;2023-07-29T01:01:18;99047.09375;;;;
44734;BME280;30462;52.446;-1.930;2023-07-29T01:02:18;99042.90234;;;;
44734;BME280;30462;52.446;-1.930;2023-07-29T01:03:18;99042.58594;;;;
44734;BME280;30462;52.446;-1.930;2023-07-29T01:04:18;99041.08594;;;;
44734;BME280;30462;52.446;-1.930;2023-07-29T01:05:17;99044.91406;;;;
44734;BME280;30462;52.446;-1.930;2023-07-29T01:06:21;99043.28516;;;;
44734;BME280;30462;52.446;-1.930;2023-07-29T01:07:19;99044.24609;;;;
44734;BME280;30462;52.446;-1.930;2023-07-29T01:08:21;99040.48438;;;;
44734;BME280;30462;52.446;-1.930;2023-07-29T01:09:20;99041.13281;;;;
44734;BME280;30462;52.446;-1.930;2023-07-29T01:10:21;99041.60547;;;;
44734;BME280;30462;52.446;-1.930;2023-07-29T01:12:19;99035.78125;;;;
44734;BME280;30462;52.446;-1.930;2023-07-29T01:13:22;99035.71875;;;;
44734;BME280;30462;52.446;-1.930;2023-07-29T01:14:19;99031.43359;;;;
44734;BME280;30462;52.446;-1.930;2023-07-29T01:15:19;99031.30469;;;;
44734;BME280;30462;52.446;-1.930;2023-07-29T01:16:19;99028.29297;;;;
44734;BME280;30462;52.446;-1.930;2023-07-29T01:17:20;99031.91406;;;;
44734;BME280;30462;52.446;-1.930;2023-07-29T01:18:21;99032.35156;;;;
44734;BME280;30462;52.446;-1.930;2023-07-29T01:19:20;99032.04688;;;;
44734;BME280;30462;52.446;-1.930;2023-07-29T01:20:19;99033.47266;;;;
44734;BME280;30462;52.446;-1.930;2023-07-29T01:21:18;99033.625;;;;
44734;BME280;30462;52.446;-1.930;2023-07-29T01:22:18;99035.29297;;;;
44734;BME280;30462;52.446;-1.930;2023-07-29T01:24:18;99030.97266;;;;
44734;BME280;30462;52.446;-1.930;2023-07-29T01:25:18;99031.03516;;;;
44734;BME280;30462;52.446;-1.930;2023-07-29T01:26:18;99028.39844;;;;
44734;BME280;30462;52.446;-1.930;2023-07-29T01:27:18;99028.28516;;;;
44734;BME280;30462;52.446;-1.930;2023-07-29T01:28:18;99027.0625;;;;
44734;BME280;30462;52.446;-1.930;2023-07-29T01:29:17;99030.35547;;;;
44734;BME280;30462;52.446;-1.930;2023-07-29T01:30:18;99028.20703;;;;
44734;BME280;30462;52.446;-1.930;2023-07-29T01:31:20;99030.80469;;;;
44734;BME280;30462;52.446;-1.930;2023-07-29T01:32:19;99025.09766;;;;
44734;BME280;30462;52.446;-1.930;2023-07-29T01:33:19;99027.21484;;;;
44734;BME280;30462;52.446;-1.930;2023-07-29T01:34:20;99027.21484;;;;
44734;BME280;30462;52.446;-1.930;2023-07-29T01:35:22;99026.67578;;;;
44734;BME280;30462;52.446;-1.930;2023-07-29T01:36:18;99027.86719;;;;
44734;BME280;30462;52.446;-1.930;2023-07-29T01:37:18;99028.43359;;;;
44734;BME280;30462;52.446;-1.930;2023-07-29T01:38:19;99024.53906;;;;
44734;BME280;30462;52.446;-1.930;2023-07-29T01:39:18;99023.40625;;;;
44734;BME280;30462;52.446;-1.930;2023-07-29T01:40:18;99028.92969;;;;
44734;BME280;30462;52.446;-1.930;2023-07-29T01:41:17;99024.1875;;;;
44734;BME280;30462;52.446;-1.930;2023-07-29T01:42:18;99027.95703;;;;
44734;BME280;30462;52.446;-1.930;2023-07-29T01:43:18;99026.59375;;;;
44734;BME280;30462;52.446;-1.930;2023-07-29T01:44:18;99023.68359;;;;
44734;BME280;30462;52.446;-1.930;2023-07-29T01:45:18;99021.69531;;;;
44734;BME280;30462;52.446;-1.930;2023-07-29T01:46:18;99025.33203;;;;
44734;BME280;30462;52.446;-1.930;2023-07-29T01:47:18;99024.41016;;;;
44734;BME280;30462;52.446;-1.930;2023-07-29T01:48:18;99020.30078;;;;
44734;BME280;30462;52.446;-1.930;2023-07-29T01:49:18;99022.20703;;;;
44734;BME280;30462;52.446;-1.930;2023-07-29T01:50:18;99025.00781;;;;
44734;BME280;30462;52.446;-1.930;2023-07-29T01:51:19;99022.08203;;;;
44734;BME280;30462;52.446;-1.930;2023-07-29T01:52:18;99026.32813;;;;
44734;BME280;30462;52.446;-1.930;2023-07-29T01:53:18;99021.26953;;;;
44734;BME280;30462;52.446;-1.930;2023-07-29T01:54:18;99012.57422;;;;
44734;BME280;30462;52.446;-1.930;2023-07-29T01:55:17;99016.37891;;;;
44734;BME280;30462;52.446;-1.930;2023-07-29T01:56:18;99017.53906;;;;
44734;BME280;30462;52.446;-1.930;2023-07-29T01:57:18;99018.99219;;;;
44734;BME280;30462;52.446;-1.930;2023-07-29T01:58:18;99020.69141;;;;
44734;BME280;30462;52.446;-1.930;2023-07-29T01:59:18;99018.32422;;;;
44734;BME280;30462;52.446;-1.930;2023-07-29T02:00:18;99015.16797;;;;
44734;BME280;30462;52.446;-1.930;2023-07-29T02:01:18;99014.63672;;;;
44734;BME280;30462;52.446;-1.930;2023-07-29T02:02:18;99008.24609;;;;
44734;BME280;30462;52.446;-1.930;2023-07-29T02:03:18;99010.11328;;;;
44734;BME280;30462;52.446;-1.930;2023-07-29T02:04:17;99009.43359;;;;
44734;BME280;30462;52.446;-1.930;2023-07-29T02:05:18;99010.22266;;;;
44734;BME280;30462;52.446;-1.930;2023-07-29T02:06:18;99010.56641;;;;
44734;BME280;30462;52.446;-1.930;2023-07-29T02:07:18;99013.39844;;;;
44734;BME280;30462;52.446;-1.930;2023-07-29T02:08:18;99014.02344;;;;
44734;BME280;30462;52.446;-1.930;2023-07-29T02:09:18;99014.64453;;;;
44734;BME280;30462;52.446;-1.930;2023-07-29T02:10:17;99014.96094;;;;
44734;BME280;30462;52.446;-1.930;2023-07-29T02:11:17;99012.39063;;;;
44734;BME280;30462;52.446;-1.930;2023-07-29T02:12:17;99011.55469;;;;
44734;BME280;30462;52.446;-1.930;2023-07-29T02:13:17;99010.61328;;;;
44734;BME280;30462;52.446;-1.930;2023-07-29T02:14:18;99011.75781;;;;
44734;BME280;30462;52.446;-1.930;2023-07-29T02:15:18;99014.64453;;;;
44734;BME280;30462;52.446;-1.930;2023-07-29T02:16:18;99015.30078;;;;
44734;BME280;30462;52.446;-1.930;2023-07-29T02:17:18;99016.55078;;;;
44734;BME280;30462;52.446;-1.930;2023-07-29T02:18:18;99017.46094;;;;
44734;BME280;30462;52.446;-1.930;2023-07-29T02:19:17;99012.13672;;;;
44734;BME280;30462;52.446;-1.930;2023-07-29T02:20:17;99016.62109;;;;
44734;BME280;30462;52.446;-1.930;2023-07-29T02:21:18;99014.46875;;;;
44734;BME280;30462;52.446;-1.930;2023-07-29T02:22:18;99017.87109;;;;
44734;BME280;30462;52.446;-1.930;2023-07-29T02:23:18;99023.02734;;;;
44734;BME280;30462;52.446;-1.930;2023-07-29T02:24:18;99024.02734;;;;
44734;BME280;30462;52.446;-1.930;2023-07-29T02:25:17;99023.4375;;;;
44734;BME280;30462;52.446;-1.930;2023-07-29T02:26:18;99022.82813;;;;
44734;BME280;30462;52.446;-1.930;2023-07-29T02:27:18;99024.41016;;;;
44734;BME280;30462;52.446;-1.930;2023-07-29T02:28:18;99027.3125;;;;
44734;BME280;30462;52.446;-1.930;2023-07-29T02:29:18;99025.57813;;;;
44734;BME280;30462;52.446;-1.930;2023-07-29T02:30:18;99022.66797;;;;
44734;BME280;30462;52.446;-1.930;2023-07-29T02:31:20;99023.94141;;;;
44734;BME280;30462;52.446;-1.930;2023-07-29T02:32:18;99024.25;;;;
44734;BME280;30462;52.446;-1.930;2023-07-29T02:33:18;99021.42188;;;;
44734;BME280;30462;52.446;-1.930;2023-07-29T02:34:17;99019.29688;;;;
44734;BME280;30462;52.446;-1.930;2023-07-29T02:35:18;99020.58203;;;;
44734;BME280;30462;52.446;-1.930;2023-07-29T02:36:17;99019.48047;;;;
44734;BME280;30462;52.446;-1.930;2023-07-29T02:37:17;99017.50391;;;;
44734;BME280;30462;52.446;-1.930;2023-07-29T02:38:18;99013.79688;;;;
44734;BME280;30462;52.446;-1.930;2023-07-29T02:39:18;99012.29297;;;;
44734;BME280;30462;52.446;-1.930;2023-07-29T02:40:18;99011.83594;;;;
44734;BME280;30462;52.446;-1.930;2023-07-29T02:41:18;99010.66406;;;;
44734;BME280;30462;52.446;-1.930;2023-07-29T02:42:17;99008.92578;;;;
44734;BME280;30462;52.446;-1.930;2023-07-29T02:43:17;99008.92578;;;;
44734;BME280;30462;52.446;-1.930;2023-07-29T02:44:18;99006.16797;;;;
44734;BME280;30462;52.446;-1.930;2023-07-29T02:45:18;99006.55078;;;;
44734;BME280;30462;52.446;-1.930;2023-07-29T02:46:18;99007.02344;;;;
44734;BME280;30462;52.446;-1.930;2023-07-29T02:47:17;99003.30469;;;;
44734;BME280;30462;52.446;-1.930;2023-07-29T02:48:18;99002.71875;;;;
44734;BME280;30462;52.446;-1.930;2023-07-29T02:49:19;99003.22656;;;;
44734;BME280;30462;52.446;-1.930;2023-07-29T02:50:18;99000.45703;;;;
44734;BME280;30462;52.446;-1.930;2023-07-29T02:51:17;98999.25781;;;;
44734;BME280;30462;52.446;-1.930;2023-07-29T02:52:18;98999.20313;;;;
44734;BME280;30462;52.446;-1.930;2023-07-29T02:53:18;98997.08984;;;;
44734;BME280;30462;52.446;-1.930;2023-07-29T02:54:18;98999.34375;;;;
44734;BME280;30462;52.446;-1.930;2023-07-29T02:55:18;99001.95703;;;;
44734;BME280;30462;52.446;-1.930;2023-07-29T02:56:18;99003.44922;;;;
44734;BME280;30462;52.446;-1.930;2023-07-29T02:57:17;99003.84375;;;;
44734;BME280;30462;52.446;-1.930;2023-07-29T02:58:18;99000.96484;;;;
44734;BME280;30462;52.446;-1.930;2023-07-29T02:59:18;98998.46484;;;;
44734;BME280;30462;52.446;-1.930;2023-07-29T03:00:18;98998.85938;;;;
44734;BME280;30462;52.446;-1.930;2023-07-29T03:01:18;98999.25391;;;;
44734;BME280;30462;52.446;-1.930;2023-07-29T03:02:17;98998.84766;;;;
44734;BME280;30462;52.446;-1.930;2023-07-29T03:03:18;99002.22266;;;;
44734;BME280;30462;52.446;-1.930;2023-07-29T03:04:18;99002.63281;;;;
44734;BME280;30462;52.446;-1.930;2023-07-29T03:05:17;99002.29297;;;;
44734;BME280;30462;52.446;-1.930;2023-07-29T03:06:18;99003.90234;;;;
44734;BME280;30462;52.446;-1.930;2023-07-29T03:07:18;99005.97656;;;;
44734;BME280;30462;52.446;-1.930;2023-07-29T03:08:17;99009.26563;;;;
44734;BME280;30462;52.446;-1.930;2023-07-29T03:09:17;99008.22656;;;;
44734;BME280;30462;52.446;-1.930;2023-07-29T03:10:18;99008.80469;;;;
44734;BME280;30462;52.446;-1.930;2023-07-29T03:11:18;99006.05469;;;;
44734;BME280;30462;52.446;-1.930;2023-07-29T03:12:18;99002.47656;;;;
44734;BME280;30462;52.446;-1.930;2023-07-29T03:13:18;99001.26172;;;;
44734;BME280;30462;52.446;-1.930;2023-07-29T03:14:18;99001.56641;;;;
44734;BME280;30462;52.446;-1.930;2023-07-29T03:15:18;98998.32031;;;;
44734;BME280;30462;52.446;-1.930;2023-07-29T03:16:18;98993.80469;;;;
44734;BME280;30462;52.446;-1.930;2023-07-29T03:17:18;98998.33203;;;;
44734;BME280;30462;52.446;-1.930;2023-07-29T03:18:17;98995.0625;;;;
44734;BME280;30462;52.446;-1.930;2023-07-29T03:19:18;98997.91797;;;;
44734;BME280;30462;52.446;-1.930;2023-07-29T03:20:18;98997.22656;;;;
44734;BME280;30462;52.446;-1.930;2023-07-29T03:21:17;98992.57813;;;;
44734;BME280;30462;52.446;-1.930;2023-07-29T03:22:17;98995.03906;;;;
44734;BME280;30462;52.446;-1.930;2023-07-29T03:23:18;98994.57813;;;;
44734;BME280;30462;52.446;-1.930;2023-07-29T03:24:18;98996.14844;;;;
44734;BME280;30462;52.446;-1.930;2023-07-29T03:25:18;98995.23828;;;;
44734;BME280;30462;52.446;-1.930;2023-07-29T03:26:18;98995.11719;;;;
44734;BME280;30462;52.446;-1.930;2023-07-29T03:27:18;98997.19141;;;;
44734;BME280;30462;52.446;-1.930;2023-07-29T03:28:17;98990.92969;;;;
44734;BME280;30462;52.446;-1.930;2023-07-29T03:29:18;98989.85547;;;;
44734;BME280;30462;52.446;-1.930;2023-07-29T03:30:19;98988.64453;;;;
44734;BME280;30462;52.446;-1.930;2023-07-29T03:31:18;98989.77734;;;;
44734;BME280;30462;52.446;-1.930;2023-07-29T03:32:18;98991.80469;;;;
44734;BME280;30462;52.446;-1.930;2023-07-29T03:33:18;98990.91797;;;;
44734;BME280;30462;52.446;-1.930;2023-07-29T03:34:17;98985.14844;;;;
44734;BME280;30462;52.446;-1.930;2023-07-29T03:35:18;98987.58203;;;;
44734;BME280;30462;52.446;-1.930;2023-07-29T03:36:18;98986.75;;;;
44734;BME280;30462;52.446;-1.930;2023-07-29T03:37:18;98984.54688;;;;
44734;BME280;30462;52.446;-1.930;2023-07-29T03:38:18;98983.18359;;;;
44734;BME280;30462;52.446;-1.930;2023-07-29T03:39:18;98980.59766;;;;
44734;BME280;30462;52.446;-1.930;2023-07-29T03:40:17;98980;;;;
44734;BME280;30462;52.446;-1.930;2023-07-29T03:41:17;98975.49219;;;;
44734;BME280;30462;52.446;-1.930;2023-07-29T03:42:18;98970.44922;;;;
44734;BME280;30462;52.446;-1.930;2023-07-29T03:43:18;98967.03906;;;;
44734;BME280;30462;52.446;-1.930;2023-07-29T03:44:18;98969.07813;;;;
44734;BME280;30462;52.446;-1.930;2023-07-29T03:45:18;98968.83594;;;;
44734;BME280;30462;52.446;-1.930;2023-07-29T03:46:18;98966.94141;;;;
44734;BME280;30462;52.446;-1.930;2023-07-29T03:47:18;98968.41797;;;;
44734;BME280;30462;52.446;-1.930;2023-07-29T03:48:18;98966.98828;;;;
44734;BME280;30462;52.446;-1.930;2023-07-29T03:49:17;98968.22266;;;;
44734;BME280;30462;52.446;-1.930;2023-07-29T03:50:18;98966.44141;;;;
44734;BME280;30462;52.446;-1.930;2023-07-29T03:51:18;98967.20703;;;;
44734;BME280;30462;52.446;-1.930;2023-07-29T03:52:18;98963.24219;;;;
44734;BME280;30462;52.446;-1.930;2023-07-29T03:53:18;98967.98438;;;;
44734;BME280;30462;52.446;-1.930;2023-07-29T03:54:18;98969.95703;;;;
44734;BME280;30462;52.446;-1.930;2023-07-29T03:55:17;98972.8125;;;;
44734;BME280;30462;52.446;-1.930;2023-07-29T03:56:18;98972.74609;;;;
44734;BME280;30462;52.446;-1.930;2023-07-29T03:57:17;98969.54688;;;;
44734;BME280;30462;52.446;-1.930;2023-07-29T03:58:18;98970.44141;;;;
44734;BME280;30462;52.446;-1.930;2023-07-29T03:59:18;98975.02344;;;;
44734;BME280;30462;52.446;-1.930;2023-07-29T04:00:20;98973.80859;;;;
44734;BME280;30462;52.446;-1.930;2023-07-29T04:01:18;98969.91016;;;;
44734;BME280;30462;52.446;-1.930;2023-07-29T04:02:18;98972.84375;;;;
44734;BME280;30462;52.446;-1.930;2023-07-29T04:03:17;98969.71484;;;;
44734;BME280;30462;52.446;-1.930;2023-07-29T04:04:19;98971.82422;;;;
44734;BME280;30462;52.446;-1.930;2023-07-29T04:05:18;98972.80469;;;;
44734;BME280;30462;52.446;-1.930;2023-07-29T04:06:17;98975.17578;;;;
44734;BME280;30462;52.446;-1.930;2023-07-29T04:07:18;98974.58594;;;;
44734;BME280;30462;52.446;-1.930;2023-07-29T04:08:18;98974.67969;;;;
44734;BME280;30462;52.446;-1.930;2023-07-29T04:09:18;98972.85547;;;;
44734;BME280;30462;52.446;-1.930;2023-07-29T04:10:18;98974.94531;;;;
44734;BME280;30462;52.446;-1.930;2023-07-29T04:11:17;98977.96094;;;;
44734;BME280;30462;52.446;-1.930;2023-07-29T04:12:18;98974.67188;;;;
44734;BME280;30462;52.446;-1.930;2023-07-29T04:13:18;98978.66016;;;;
44734;BME280;30462;52.446;-1.930;2023-07-29T04:14:18;98978.55859;;;;
44734;BME280;30462;52.446;-1.930;2023-07-29T04:15:18;98976.32813;;;;
44734;BME280;30462;52.446;-1.930;2023-07-29T04:16:17;98977.96875;;;;
44734;BME280;30462;52.446;-1.930;2023-07-29T04:17:17;98975.23828;;;;
44734;BME280;30462;52.446;-1.930;2023-07-29T04:18:18;98976.07813;;;;
44734;BME280;30462;52.446;-1.930;2023-07-29T04:19:18;98976.60938;;;;
44734;BME280;30462;52.446;-1.930;2023-07-29T04:20:18;98981.62891;;;;
44734;BME280;30462;52.446;-1.930;2023-07-29T04:21:18;98979.01953;;;;
44734;BME280;30462;52.446;-1.930;2023-07-29T04:22:17;98980.53516;;;;
44734;BME280;30462;52.446;-1.930;2023-07-29T04:23:17;98979.45313;;;;
44734;BME280;30462;52.446;-1.930;2023-07-29T04:24:18;98980.71094;;;;
44734;BME280;30462;52.446;-1.930;2023-07-29T04:25:19;98980.57422;;;;
44734;BME280;30462;52.446;-1.930;2023-07-29T04:26:18;98981.07031;;;;
44734;BME280;30462;52.446;-1.930;2023-07-29T04:27:17;98980.21484;;;;
44734;BME280;30462;52.446;-1.930;2023-07-29T04:28:18;98986.28516;;;;
44734;BME280;30462;52.446;-1.930;2023-07-29T04:29:18;98979.46875;;;;
44734;BME280;30462;52.446;-1.930;2023-07-29T04:30:18;98982.76953;;;;
44734;BME280;30462;52.446;-1.930;2023-07-29T04:31:18;98981.60938;;;;
44734;BME280;30462;52.446;-1.930;2023-07-29T04:32:18;98979.77734;;;;
44734;BME280;30462;52.446;-1.930;2023-07-29T04:33:17;98981.27344;;;;
44734;BME280;30462;52.446;-1.930;2023-07-29T04:34:19;98978.9375;;;;
44734;BME280;30462;52.446;-1.930;2023-07-29T04:35:18;98979.67969;;;;
44734;BME280;30462;52.446;-1.930;2023-07-29T04:36:17;98978.45703;;;;
44734;BME280;30462;52.446;-1.930;2023-07-29T04:37:18;98977.51172;;;;
44734;BME280;30462;52.446;-1.930;2023-07-29T04:38:18;98976.38281;;;;
44734;BME280;30462;52.446;-1.930;2023-07-29T04:39:18;98975.51563;;;;
44734;BME280;30462;52.446;-1.930;2023-07-29T04:40:18;98976.21875;;;;
44734;BME280;30462;52.446;-1.930;2023-07-29T04:41:17;98980.57813;;;;
44734;BME280;30462;52.446;-1.930;2023-07-29T04:42:18;98977.72656;;;;
44734;BME280;30462;52.446;-1.930;2023-07-29T04:43:18;98982.12891;;;;
44734;BME280;30462;52.446;-1.930;2023-07-29T04:44:18;98983.16016;;;;
44734;BME280;30462;52.446;-1.930;2023-07-29T04:45:18;98982.63672;;;;
44734;BME280;30462;52.446;-1.930;2023-07-29T04:46:18;98982.61328;;;;
44734;BME280;30462;52.446;-1.930;2023-07-29T04:47:18;98983.27344;;;;
44734;BME280;30462;52.446;-1.930;2023-07-29T04:48:17;98983.53125;;;;
44734;BME280;30462;52.446;-1.930;2023-07-29T04:49:18;98984.26953;;;;
44734;BME280;30462;52.446;-1.930;2023-07-29T04:50:18;98982.24609;;;;
44734;BME280;30462;52.446;-1.930;2023-07-29T04:51:18;98984.80469;;;;
44734;BME280;30462;52.446;-1.930;2023-07-29T04:52:17;98983.09766;;;;
44734;BME280;30462;52.446;-1.930;2023-07-29T04:53:17;98979.73828;;;;
44734;BME280;30462;52.446;-1.930;2023-07-29T04:54:18;98979.41797;;;;
44734;BME280;30462;52.446;-1.930;2023-07-29T04:55:18;98982.74609;;;;
44734;BME280;30462;52.446;-1.930;2023-07-29T04:56:18;98986.08984;;;;
44734;BME280;30462;52.446;-1.930;2023-07-29T04:57:17;98989.51953;;;;
44734;BME280;30462;52.446;-1.930;2023-07-29T04:58:18;98993.45313;;;;
44734;BME280;30462;52.446;-1.930;2023-07-29T04:59:18;98993.86328;;;;
44734;BME280;30462;52.446;-1.930;2023-07-29T05:00:17;98995.69141;;;;
44734;BME280;30462;52.446;-1.930;2023-07-29T05:01:18;98999.22656;;;;
44734;BME280;30462;52.446;-1.930;2023-07-29T05:02:18;98999.41797;;;;
44734;BME280;30462;52.446;-1.930;2023-07-29T05:03:18;99000.59375;;;;
44734;BME280;30462;52.446;-1.930;2023-07-29T05:04:17;99002.35547;;;;
44734;BME280;30462;52.446;-1.930;2023-07-29T05:05:17;99002.88281;;;;
44734;BME280;30462;52.446;-1.930;2023-07-29T05:06:18;99000.19531;;;;
44734;BME280;30462;52.446;-1.930;2023-07-29T05:07:18;98998.23438;;;;
44734;BME280;30462;52.446;-1.930;2023-07-29T05:08:18;99001.09766;;;;
44734;BME280;30462;52.446;-1.930;2023-07-29T05:09:18;99001.03125;;;;
44734;BME280;30462;52.446;-1.930;2023-07-29T05:10:18;99001.69531;;;;
44734;BME280;30462;52.446;-1.930;2023-07-29T05:11:18;99000.42578;;;;
44734;BME280;30462;52.446;-1.930;2023-07-29T05:12:18;99004.69922;;;;
44734;BME280;30462;52.446;-1.930;2023-07-29T05:13:18;99003.33984;;;;
44734;BME280;30462;52.446;-1.930;2023-07-29T05:14:17;99006.51172;;;;
44734;BME280;30462;52.446;-1.930;2023-07-29T05:15:17;99003.14844;;;;
44734;BME280;30462;52.446;-1.930;2023-07-29T05:16:18;99004.09375;;;;
44734;BME280;30462;52.446;-1.930;2023-07-29T05:17:18;99002.48438;;;;
44734;BME280;30462;52.446;-1.930;2023-07-29T05:18:19;99000.33203;;;;
44734;BME280;30462;52.446;-1.930;2023-07-29T05:19:18;98997.01172;;;;
44734;BME280;30462;52.446;-1.930;2023-07-29T05:20:17;99000.34375;;;;
44734;BME280;30462;52.446;-1.930;2023-07-29T05:21:18;98995.00781;;;;
44734;BME280;30462;52.446;-1.930;2023-07-29T05:22:18;98998.33594;;;;
44734;BME280;30462;52.446;-1.930;2023-07-29T05:23:18;98998.66016;;;;
44734;BME280;30462;52.446;-1.930;2023-07-29T05:24:17;98999.28516;;;;
44734;BME280;30462;52.446;-1.930;2023-07-29T05:25:17;98997.60156;;;;
44734;BME280;30462;52.446;-1.930;2023-07-29T05:26:18;98996.05469;;;;
44734;BME280;30462;52.446;-1.930;2023-07-29T05:27:18;98993.3125;;;;
44734;BME280;30462;52.446;-1.930;2023-07-29T05:28:18;98996.17969;;;;
44734;BME280;30462;52.446;-1.930;2023-07-29T05:29:18;98996.55469;;;;
44734;BME280;30462;52.446;-1.930;2023-07-29T05:30:18;99000.44531;;;;
44734;BME280;30462;52.446;-1.930;2023-07-29T05:31:17;98999.06641;;;;
44734;BME280;30462;52.446;-1.930;2023-07-29T05:32:18;98999.11328;;;;
44734;BME280;30462;52.446;-1.930;2023-07-29T05:33:18;98997.91016;;;;
44734;BME280;30462;52.446;-1.930;2023-07-29T05:34:18;98995.86719;;;;
44734;BME280;30462;52.446;-1.930;2023-07-29T05:35:18;98993.91406;;;;
44734;BME280;30462;52.446;-1.930;2023-07-29T05:36:17;98994.54297;;;;
44734;BME280;30462;52.446;-1.930;2023-07-29T05:37:18;98997.24609;;;;
44734;BME280;30462;52.446;-1.930;2023-07-29T05:38:18;98993.14063;;;;
44734;BME280;30462;52.446;-1.930;2023-07-29T05:39:18;98993.85938;;;;
44734;BME280;30462;52.446;-1.930;2023-07-29T05:40:18;98993.70313;;;;
44734;BME280;30462;52.446;-1.930;2023-07-29T05:41:18;98989.69141;;;;
44734;BME280;30462;52.446;-1.930;2023-07-29T05:42:17;98994.08203;;;;
44734;BME280;30462;52.446;-1.930;2023-07-29T05:43:18;98992.89453;;;;
44734;BME280;30462;52.446;-1.930;2023-07-29T05:44:18;98994.32813;;;;
44734;BME280;30462;52.446;-1.930;2023-07-29T05:45:18;98994.71484;;;;
44734;BME280;30462;52.446;-1.930;2023-07-29T05:46:18;98994.97266;;;;
44734;BME280;30462;52.446;-1.930;2023-07-29T05:47:17;98997.45703;;;;